createdAt,value
2023-01-28T00:01:19.577Z,13.30
2023-01-28T00:03:50.925Z,13.48
2023-01-28T00:06:18.992Z,15.33
2023-01-28T00:08:45.928Z,14.00
2023-01-28T00:11:13.788Z,12.75
2023-01-28T00:13:40.746Z,14.25
2023-01-28T00:16:09.679Z,13.10
2023-01-28T00:18:36.866Z,13.20
2023-01-28T00:21:06.735Z,13.38
2023-01-28T00:23:35.282Z,14.40
2023-01-28T00:26:04.092Z,17.10
2023-01-28T00:28:30.765Z,14.23
2023-01-28T00:30:57.482Z,13.25
2023-01-28T00:33:24.559Z,14.35
2023-01-28T00:36:00.241Z,18.13
2023-01-28T00:38:27.628Z,17.83
2023-01-28T00:40:54.481Z,16.38
2023-01-28T00:43:21.601Z,17.23
2023-01-28T00:45:50.249Z,16.40
2023-01-28T00:48:17.172Z,18.85
2023-01-28T00:50:45.497Z,18.00
2023-01-28T00:53:12.238Z,20.13
2023-01-28T00:55:39.125Z,18.92
2023-01-28T00:58:05.894Z,16.38
2023-01-28T01:00:32.574Z,17.13
2023-01-28T01:03:00.221Z,16.67
2023-01-28T01:05:26.994Z,16.92
2023-01-28T01:07:53.646Z,15.88
2023-01-28T01:10:20.369Z,15.40
2023-01-28T01:12:48.608Z,14.75
2023-01-28T01:15:16.938Z,18.67
2023-01-28T01:17:47.295Z,16.77
2023-01-28T01:20:20.695Z,15.23
2023-01-28T01:22:48.169Z,16.42
2023-01-28T01:25:16.851Z,15.95
2023-01-28T01:27:46.074Z,17.63
2023-01-28T01:30:13.151Z,15.43
2023-01-28T01:32:40.085Z,17.48
2023-01-28T01:35:08.145Z,17.70
2023-01-28T01:37:36.469Z,16.48
2023-01-28T01:40:05.004Z,17.80
2023-01-28T01:42:33.169Z,14.55
2023-01-28T01:45:03.647Z,15.80
2023-01-28T01:47:44.180Z,16.25
2023-01-28T01:50:18.199Z,18.15
2023-01-28T01:52:46.009Z,16.80
2023-01-28T01:55:19.101Z,14.63
2023-01-28T01:57:48.284Z,14.63
2023-01-28T02:00:15.705Z,14.82
2023-01-28T02:02:46.421Z,13.57
2023-01-28T02:05:16.150Z,16.88
2023-01-28T02:07:45.095Z,13.77
2023-01-28T02:10:13.321Z,15.77
2023-01-28T02:12:47.808Z,13.65
2023-01-28T02:15:22.721Z,14.27
2023-01-28T02:17:50.653Z,15.73
2023-01-28T02:20:25.616Z,15.63
2023-01-28T02:23:03.212Z,13.55
2023-01-28T02:25:32.909Z,13.50
2023-01-28T02:28:32.837Z,14.48
2023-01-28T02:31:16.294Z,13.27
2023-01-28T02:33:59.376Z,14.50
2023-01-28T02:36:49.926Z,16.98
2023-01-28T02:39:23.046Z,15.60
2023-01-28T02:42:07.512Z,14.40
2023-01-28T02:44:34.467Z,17.75
2023-01-28T02:47:19.833Z,17.73
2023-01-28T02:49:51.954Z,20.63
2023-01-28T02:52:46.959Z,51.13
2023-01-28T02:55:50.060Z,44.85
2023-01-28T02:58:37.086Z,21.85
2023-01-28T03:01:10.838Z,26.13
2023-01-28T03:04:01.662Z,33.25
2023-01-28T03:06:39.111Z,60.63
2023-01-28T03:09:24.562Z,19.48
2023-01-28T03:12:24.924Z,24.08
2023-01-28T03:15:18.592Z,18.90
2023-01-28T03:18:14.163Z,21.27
2023-01-28T03:21:07.952Z,53.10
2023-01-28T03:24:07.037Z,28.90
2023-01-28T03:27:00.667Z,16.70
2023-01-28T03:29:49.433Z,16.45
2023-01-28T03:32:38.271Z,14.35
2023-01-28T03:35:27.369Z,15.70
2023-01-28T03:37:54.156Z,15.48
2023-01-28T03:40:22.796Z,15.18
2023-01-28T03:42:49.585Z,14.98
2023-01-28T03:45:36.009Z,15.43
2023-01-28T03:48:04.737Z,15.95
2023-01-28T03:50:31.921Z,16.35
2023-01-28T03:53:13.529Z,16.48
2023-01-28T03:55:51.167Z,16.00
2023-01-28T03:58:19.129Z,18.48
2023-01-28T04:00:46.442Z,15.75
2023-01-28T04:03:19.039Z,15.68
2023-01-28T04:06:12.177Z,18.52
2023-01-28T04:08:59.140Z,15.77
2023-01-28T04:11:36.248Z,18.92
2023-01-28T04:14:05.240Z,17.30
2023-01-28T04:16:49.454Z,19.77
2023-01-28T04:19:16.772Z,21.00
2023-01-28T04:21:44.663Z,21.55
2023-01-28T04:24:11.503Z,23.40
2023-01-28T04:26:39.566Z,22.35
2023-01-28T04:29:06.517Z,23.50
2023-01-28T04:31:35.463Z,22.95
2023-01-28T04:34:20.684Z,23.95
2023-01-28T04:37:10.559Z,24.70
2023-01-28T04:39:55.677Z,22.58
2023-01-28T04:42:40.818Z,19.27
2023-01-28T04:45:16.160Z,21.25
2023-01-28T04:47:51.657Z,21.30
2023-01-28T04:50:37.855Z,20.85
2023-01-28T04:53:19.082Z,23.48
2023-01-28T04:56:08.905Z,22.08
2023-01-28T04:58:36.327Z,21.65
2023-01-28T05:01:06.286Z,23.05
2023-01-28T05:03:35.995Z,23.80
2023-01-28T05:06:05.029Z,21.45
2023-01-28T05:08:49.311Z,20.52
2023-01-28T05:11:16.470Z,24.38
2023-01-28T05:13:44.954Z,22.98
2023-01-28T05:16:13.463Z,22.90
2023-01-28T05:18:40.464Z,18.95
2023-01-28T05:21:15.338Z,22.83
2023-01-28T05:23:43.247Z,23.02
2023-01-28T05:26:10.156Z,23.10
2023-01-28T05:28:36.955Z,22.95
2023-01-28T05:31:04.822Z,23.98
2023-01-28T05:33:31.738Z,26.35
2023-01-28T05:35:58.795Z,25.30
2023-01-28T05:38:25.620Z,20.88
2023-01-28T05:40:52.273Z,25.85
2023-01-28T05:43:19.172Z,26.23
2023-01-28T05:45:52.575Z,24.80
2023-01-28T05:48:23.639Z,23.55
2023-01-28T05:51:10.976Z,24.73
2023-01-28T05:53:41.951Z,24.92
2023-01-28T05:56:08.657Z,20.65
2023-01-28T05:58:36.840Z,20.20
2023-01-28T06:01:04.142Z,22.30
2023-01-28T06:03:39.167Z,21.13
2023-01-28T06:06:06.208Z,20.20
2023-01-28T06:08:32.897Z,21.08
2023-01-28T06:11:00.011Z,20.88
2023-01-28T06:13:28.566Z,20.38
2023-01-28T06:16:15.264Z,23.55
2023-01-28T06:19:11.321Z,21.23
2023-01-28T06:21:38.238Z,24.27
2023-01-28T06:24:05.093Z,28.15
2023-01-28T06:26:31.911Z,22.80
2023-01-28T06:28:58.616Z,19.98
2023-01-28T06:31:25.382Z,21.35
2023-01-28T06:33:52.022Z,18.52
2023-01-28T06:36:18.734Z,26.08
2023-01-28T06:38:45.504Z,24.45
2023-01-28T06:41:12.317Z,22.98
2023-01-28T06:43:39.057Z,22.85
2023-01-28T06:46:06.113Z,19.83
2023-01-28T06:48:33.057Z,23.60
2023-01-28T06:50:59.761Z,22.95
2023-01-28T06:53:26.630Z,29.25
2023-01-28T06:55:53.406Z,31.58
2023-01-28T06:58:20.170Z,33.85
2023-01-28T07:00:46.865Z,51.65
2023-01-28T07:03:13.615Z,29.60
2023-01-28T07:05:40.308Z,51.55
2023-01-28T07:08:07.112Z,60.65
2023-01-28T07:10:33.959Z,40.17
2023-01-28T07:13:00.635Z,41.22
2023-01-28T07:15:27.657Z,30.10
2023-01-28T07:17:54.346Z,31.83
2023-01-28T07:20:22.195Z,29.08
2023-01-28T07:22:49.016Z,26.75
2023-01-28T07:25:16.073Z,27.08
2023-01-28T07:27:51.176Z,29.70
2023-01-28T07:30:18.899Z,36.47
2023-01-28T07:32:46.152Z,32.17
2023-01-28T07:35:13.752Z,29.60
2023-01-28T07:37:40.534Z,29.25
2023-01-28T07:40:08.269Z,26.90
2023-01-28T07:42:34.968Z,26.98
2023-01-28T07:45:06.387Z,23.48
2023-01-28T07:47:33.426Z,27.05
2023-01-28T07:50:00.451Z,23.02
2023-01-28T07:52:27.130Z,27.60
2023-01-28T07:54:54.178Z,24.60
2023-01-28T07:57:23.176Z,24.60
2023-01-28T07:59:50.975Z,24.55
2023-01-28T08:02:18.353Z,25.88
2023-01-28T08:04:46.711Z,26.98
2023-01-28T08:07:13.467Z,24.55
2023-01-28T08:09:40.143Z,23.40
2023-01-28T08:12:06.991Z,22.77
2023-01-28T08:14:33.676Z,24.98
2023-01-28T08:17:00.389Z,30.35
2023-01-28T08:19:27.058Z,32.88
2023-01-28T08:21:53.855Z,27.17
2023-01-28T08:24:20.649Z,27.27
2023-01-28T08:26:48.507Z,29.50
2023-01-28T08:29:15.173Z,31.52
2023-01-28T08:31:41.927Z,27.50
2023-01-28T08:34:08.601Z,29.33
2023-01-28T08:36:35.305Z,26.92
2023-01-28T08:39:01.936Z,28.67
2023-01-28T08:41:30.864Z,27.20
2023-01-28T08:43:58.294Z,26.52
2023-01-28T08:46:24.970Z,25.65
2023-01-28T08:48:51.768Z,22.92
2023-01-28T08:51:18.406Z,28.05
2023-01-28T08:53:45.090Z,38.35
2023-01-28T08:56:11.783Z,32.20
2023-01-28T08:58:38.510Z,28.85
2023-01-28T09:01:06.725Z,24.90
2023-01-28T09:03:33.852Z,24.77
2023-01-28T09:06:04.813Z,23.02
2023-01-28T09:08:31.838Z,24.98
2023-01-28T09:10:59.488Z,25.55
2023-01-28T09:13:27.073Z,23.80
2023-01-28T09:15:53.870Z,25.77
2023-01-28T09:18:20.688Z,21.27
2023-01-28T09:20:47.485Z,24.20
2023-01-28T09:23:14.750Z,21.42
2023-01-28T09:25:41.479Z,19.77
2023-01-28T09:28:08.617Z,21.08
2023-01-28T09:30:37.530Z,22.13
2023-01-28T09:33:04.549Z,21.80
2023-01-28T09:35:31.303Z,22.48
2023-01-28T09:37:59.046Z,23.58
2023-01-28T09:40:40.069Z,22.70
2023-01-28T09:43:30.624Z,23.75
2023-01-28T09:46:00.158Z,27.38
2023-01-28T09:48:45.341Z,22.35
2023-01-28T09:51:28.450Z,22.70
2023-01-28T09:53:57.298Z,24.75
2023-01-28T09:56:32.279Z,25.85
2023-01-28T09:59:13.553Z,24.98
2023-01-28T10:02:02.030Z,24.55
2023-01-28T10:04:38.971Z,22.27
2023-01-28T10:07:20.083Z,30.83
2023-01-28T10:10:06.235Z,25.80
2023-01-28T10:13:06.076Z,46.80
2023-01-28T10:16:05.923Z,66.47
2023-01-28T10:18:53.842Z,44.47
2023-01-28T10:21:50.823Z,35.05
2023-01-28T10:24:31.860Z,29.75
2023-01-28T10:26:58.760Z,31.10
2023-01-28T10:29:30.023Z,55.65
2023-01-28T10:32:05.528Z,25.08
2023-01-28T10:34:32.312Z,35.63
2023-01-28T10:36:59.056Z,18.13
2023-01-28T10:39:28.229Z,18.67
2023-01-28T10:41:59.070Z,15.00
2023-01-28T10:44:37.655Z,19.65
2023-01-28T10:47:15.381Z,16.85
2023-01-28T10:49:46.546Z,15.13
2023-01-28T10:52:14.516Z,16.83
2023-01-28T10:54:41.250Z,13.65
2023-01-28T10:57:13.308Z,14.48
2023-01-28T10:59:43.209Z,16.33
2023-01-28T11:02:33.084Z,13.75
2023-01-28T11:05:27.205Z,11.23
2023-01-28T11:08:16.954Z,9.13
2023-01-28T11:10:45.810Z,8.88
2023-01-28T11:13:30.926Z,9.27
2023-01-28T11:16:17.861Z,9.18
2023-01-28T11:18:54.451Z,11.65
2023-01-28T11:21:29.961Z,10.45
2023-01-28T11:24:04.689Z,8.07
2023-01-28T11:26:35.092Z,7.68
2023-01-28T11:29:01.815Z,7.20
2023-01-28T11:31:29.182Z,7.20
2023-01-28T11:33:59.510Z,7.20
2023-01-28T11:36:29.048Z,9.93
2023-01-28T11:38:58.896Z,7.95
2023-01-28T11:41:32.136Z,10.88
2023-01-28T11:44:00.986Z,8.80
2023-01-28T11:47:01.128Z,10.70
2023-01-28T11:49:53.739Z,11.40
2023-01-28T11:53:06.349Z,10.40
2023-01-28T11:55:40.466Z,8.27
2023-01-28T11:58:31.208Z,8.23
2023-01-28T12:01:19.421Z,8.82
2023-01-28T12:04:20.163Z,15.05
2023-01-28T12:07:17.186Z,10.25
2023-01-28T12:10:18.969Z,15.00
2023-01-28T12:12:59.092Z,9.02
2023-01-28T12:16:10.681Z,10.30
2023-01-28T12:18:43.670Z,11.52
2023-01-28T12:21:25.261Z,11.02
2023-01-28T12:24:27.078Z,8.90
2023-01-28T12:27:29.775Z,26.75
2023-01-28T12:30:15.401Z,48.00
2023-01-28T12:33:02.631Z,13.95
2023-01-28T12:35:43.462Z,11.77
2023-01-28T12:38:19.229Z,12.73
2023-01-28T12:41:04.383Z,12.98
2023-01-28T12:43:51.505Z,12.02
2023-01-28T12:46:30.053Z,12.60
2023-01-28T12:49:50.862Z,12.63
2023-01-28T12:52:20.321Z,15.43
2023-01-28T12:55:14.654Z,14.85
2023-01-28T12:57:41.824Z,13.85
2023-01-28T13:00:34.336Z,13.88
2023-01-28T13:03:21.529Z,13.50
2023-01-28T13:05:55.349Z,13.38
2023-01-28T13:08:25.161Z,13.65
2023-01-28T13:10:52.840Z,12.75
2023-01-28T13:13:35.889Z,14.52
2023-01-28T13:16:04.220Z,14.60
2023-01-28T13:18:48.072Z,13.38
2023-01-28T13:21:34.688Z,14.55
2023-01-28T13:24:20.963Z,14.03
2023-01-28T13:26:56.085Z,17.90
2023-01-28T13:29:25.933Z,20.05
2023-01-28T13:31:58.931Z,47.78
2023-01-28T13:34:37.945Z,45.33
2023-01-28T13:37:29.582Z,37.03
2023-01-28T13:40:02.975Z,40.55
2023-01-28T13:42:31.259Z,36.30
2023-01-28T13:45:16.830Z,28.83
2023-01-28T13:47:53.872Z,21.50
2023-01-28T13:50:27.676Z,21.20
2023-01-28T13:53:03.834Z,17.30
2023-01-28T13:55:44.317Z,18.88
2023-01-28T13:58:51.714Z,22.33
2023-01-28T14:01:27.449Z,18.27
2023-01-28T14:04:11.976Z,23.50
2023-01-28T14:07:07.766Z,18.98
2023-01-28T14:09:42.983Z,16.90
2023-01-28T14:12:33.361Z,19.58
2023-01-28T14:15:17.329Z,15.15
2023-01-28T14:17:53.317Z,15.20
2023-01-28T14:20:26.434Z,22.60
2023-01-28T14:23:05.336Z,20.35
2023-01-28T14:26:07.286Z,16.13
2023-01-28T14:28:45.736Z,17.30
2023-01-28T14:31:22.469Z,19.38
2023-01-28T14:33:49.324Z,17.38
2023-01-28T14:36:16.215Z,17.52
2023-01-28T14:38:44.926Z,17.50
2023-01-28T14:41:25.890Z,18.00
2023-01-28T14:43:55.305Z,19.20
2023-01-28T14:46:45.689Z,21.08
2023-01-28T14:49:55.155Z,20.33
2023-01-28T14:52:53.243Z,17.88
2023-01-28T14:55:38.271Z,23.35
2023-01-28T14:58:24.055Z,18.92
2023-01-28T15:00:56.137Z,26.80
2023-01-28T15:03:26.527Z,21.63
2023-01-28T15:06:16.987Z,20.15
2023-01-28T15:08:43.724Z,20.73
2023-01-28T15:11:17.826Z,25.50
2023-01-28T15:13:47.482Z,24.85
2023-01-28T15:16:29.076Z,23.67
2023-01-28T15:18:57.335Z,15.38
2023-01-28T15:21:26.405Z,16.60
2023-01-28T15:23:57.232Z,19.35
2023-01-28T15:26:27.279Z,18.67
2023-01-28T15:28:54.878Z,18.75
2023-01-28T15:31:26.447Z,17.13
2023-01-28T15:34:00.375Z,22.17
2023-01-28T15:36:27.987Z,25.00
2023-01-28T15:38:55.118Z,36.10
2023-01-28T15:41:27.948Z,35.08
2023-01-28T15:43:54.728Z,25.17
2023-01-28T15:46:21.994Z,20.23
2023-01-28T15:48:59.385Z,28.02
2023-01-28T15:51:30.871Z,16.23
2023-01-28T15:54:09.775Z,22.77
2023-01-28T15:56:37.120Z,20.55
2023-01-28T15:59:18.776Z,18.13
2023-01-28T16:01:45.533Z,20.43
2023-01-28T16:04:29.544Z,21.92
2023-01-28T16:06:58.879Z,22.98
2023-01-28T16:09:31.489Z,16.73
2023-01-28T16:12:06.568Z,20.15
2023-01-28T16:14:46.544Z,19.02
2023-01-28T16:17:21.929Z,19.77
2023-01-28T16:19:55.413Z,18.27
2023-01-28T16:22:37.915Z,19.58
2023-01-28T16:25:25.917Z,17.73
2023-01-28T16:27:52.736Z,16.92
2023-01-28T16:30:19.519Z,19.70
2023-01-28T16:32:46.530Z,21.45
2023-01-28T16:35:26.650Z,18.58
2023-01-28T16:37:54.345Z,20.73
2023-01-28T16:40:23.594Z,19.30
2023-01-28T16:42:53.460Z,19.50
2023-01-28T16:45:25.080Z,21.20
2023-01-28T16:47:52.806Z,24.60
2023-01-28T16:50:21.815Z,23.35
2023-01-28T16:52:51.726Z,23.55
2023-01-28T16:55:20.849Z,26.05
2023-01-28T16:57:49.835Z,38.15
2023-01-28T17:00:23.057Z,28.92
2023-01-28T17:02:50.895Z,36.60
2023-01-28T17:05:18.455Z,29.90
2023-01-28T17:07:48.597Z,35.97
2023-01-28T17:10:16.675Z,27.77
2023-01-28T17:12:44.289Z,28.25
2023-01-28T17:15:11.424Z,24.92
2023-01-28T17:17:38.146Z,24.65
2023-01-28T17:20:06.206Z,26.38
2023-01-28T17:22:32.974Z,29.65
2023-01-28T17:24:59.708Z,30.50
2023-01-28T17:27:26.411Z,26.48
2023-01-28T17:29:53.617Z,26.80
2023-01-28T17:32:20.454Z,24.17
2023-01-28T17:34:48.200Z,27.20
2023-01-28T17:37:15.014Z,34.75
2023-01-28T17:39:41.760Z,22.00
2023-01-28T17:42:08.403Z,27.00
2023-01-28T17:44:35.087Z,22.73
2023-01-28T17:47:01.950Z,24.40
2023-01-28T17:49:28.639Z,28.70
2023-01-28T17:51:55.496Z,25.95
2023-01-28T17:54:24.320Z,24.10
2023-01-28T17:56:51.326Z,25.17
2023-01-28T17:59:18.031Z,26.23
2023-01-28T18:01:45.285Z,23.55
2023-01-28T18:04:13.052Z,26.67
2023-01-28T18:06:39.773Z,24.60
2023-01-28T18:09:07.116Z,23.63
2023-01-28T18:11:33.984Z,26.95
2023-01-28T18:14:00.983Z,25.10
2023-01-28T18:16:27.832Z,23.35
2023-01-28T18:18:54.686Z,22.95
2023-01-28T18:21:51.183Z,24.50
2023-01-28T18:24:24.398Z,30.73
2023-01-28T18:26:52.573Z,27.42
2023-01-28T18:29:20.905Z,27.92
2023-01-28T18:31:48.906Z,27.90
2023-01-28T18:34:17.259Z,26.17
2023-01-28T18:36:44.316Z,25.33
2023-01-28T18:39:15.191Z,26.30
2023-01-28T18:41:42.214Z,24.35
2023-01-28T18:44:10.822Z,24.48
2023-01-28T18:46:37.654Z,25.02
2023-01-28T18:49:04.682Z,23.05
2023-01-28T18:51:31.667Z,23.38
2023-01-28T18:54:00.171Z,21.33
2023-01-28T18:56:28.343Z,27.25
2023-01-28T18:58:59.643Z,28.95
2023-01-28T19:01:26.902Z,23.88
2023-01-28T19:03:55.357Z,21.55
2023-01-28T19:06:22.225Z,26.38
2023-01-28T19:08:56.342Z,22.83
2023-01-28T19:11:24.654Z,26.55
2023-01-28T19:13:51.824Z,30.70
2023-01-28T19:16:19.192Z,50.63
2023-01-28T19:18:55.767Z,32.95
2023-01-28T19:21:24.851Z,26.90
2023-01-28T19:23:59.854Z,24.45
2023-01-28T19:26:28.301Z,24.88
2023-01-28T19:28:55.182Z,33.45
2023-01-28T19:31:23.526Z,30.15
2023-01-28T19:33:54.946Z,35.58
2023-01-28T19:36:22.007Z,70.43
2023-01-28T19:38:48.674Z,41.88
2023-01-28T19:41:17.273Z,36.88
2023-01-28T19:43:44.355Z,52.50
2023-01-28T19:46:15.806Z,54.63
2023-01-28T19:48:42.879Z,26.10
2023-01-28T19:51:10.777Z,31.35
2023-01-28T19:53:38.904Z,31.83
2023-01-28T19:56:14.952Z,27.63
2023-01-28T19:58:44.988Z,24.67
2023-01-28T20:01:16.662Z,27.08
2023-01-28T20:03:44.283Z,28.13
2023-01-28T20:06:13.380Z,31.88
2023-01-28T20:08:40.174Z,34.88
2023-01-28T20:11:09.587Z,31.15
2023-01-28T20:13:37.959Z,29.33
2023-01-28T20:16:08.596Z,24.50
2023-01-28T20:18:35.696Z,25.13
2023-01-28T20:21:05.050Z,28.48
2023-01-28T20:23:31.780Z,26.08
2023-01-28T20:25:59.268Z,30.67
2023-01-28T20:28:26.098Z,24.70
2023-01-28T20:30:53.827Z,23.95
2023-01-28T20:33:21.127Z,23.17
2023-01-28T20:35:47.906Z,27.05
2023-01-28T20:38:14.827Z,21.05
2023-01-28T20:40:44.741Z,29.58
2023-01-28T20:43:11.440Z,27.55
2023-01-28T20:45:38.251Z,23.42
2023-01-28T20:48:05.176Z,21.42
2023-01-28T20:50:31.940Z,26.35
2023-01-28T20:52:58.643Z,25.02
2023-01-28T20:55:25.287Z,23.40
2023-01-28T20:57:52.620Z,23.15
2023-01-28T21:00:20.054Z,23.00
2023-01-28T21:02:47.176Z,22.05
2023-01-28T21:05:14.056Z,23.92
2023-01-28T21:07:41.336Z,29.98
2023-01-28T21:10:08.729Z,21.45
2023-01-28T21:12:35.544Z,25.73
2023-01-28T21:15:02.355Z,28.80
2023-01-28T21:17:31.642Z,24.55
2023-01-28T21:19:58.775Z,28.05
2023-01-28T21:22:25.440Z,22.98
2023-01-28T21:24:52.110Z,62.40
2023-01-28T21:27:18.955Z,32.45
2023-01-28T21:29:45.645Z,20.17
2023-01-28T21:32:12.557Z,20.25
2023-01-28T21:34:39.426Z,18.23
2023-01-28T21:37:06.083Z,18.45
2023-01-28T21:39:32.754Z,19.20
2023-01-28T21:41:59.529Z,18.02
2023-01-28T21:44:26.209Z,17.73
2023-01-28T21:46:53.049Z,18.30
2023-01-28T21:49:19.841Z,20.05
2023-01-28T21:51:47.075Z,14.35
2023-01-28T21:54:19.181Z,15.75
2023-01-28T21:56:47.710Z,13.75
2023-01-28T21:59:30.680Z,15.77
2023-01-28T22:02:09.204Z,14.52
2023-01-28T22:04:41.227Z,15.32
2023-01-28T22:07:11.373Z,14.98
2023-01-28T22:09:39.137Z,14.00
2023-01-28T22:12:07.900Z,15.77
2023-01-28T22:14:35.732Z,11.65
2023-01-28T22:17:02.803Z,12.90
2023-01-28T22:19:29.729Z,13.25
2023-01-28T22:21:56.360Z,12.55
2023-01-28T22:24:27.217Z,12.80
2023-01-28T22:26:54.573Z,12.35
2023-01-28T22:29:22.958Z,12.45
2023-01-28T22:31:52.037Z,13.57
2023-01-28T22:34:20.451Z,14.32
2023-01-28T22:36:47.911Z,15.48
2023-01-28T22:39:16.235Z,14.38
2023-01-28T22:41:44.238Z,15.77
2023-01-28T22:44:11.236Z,18.77
2023-01-28T22:46:38.366Z,16.48
2023-01-28T22:49:05.464Z,15.85
2023-01-28T22:51:36.389Z,14.00
2023-01-28T22:54:03.594Z,14.25
2023-01-28T22:56:31.339Z,15.55
2023-01-28T22:59:03.329Z,16.85
2023-01-28T23:01:30.446Z,19.40
2023-01-28T23:03:57.572Z,19.10
2023-01-28T23:06:26.036Z,20.23
2023-01-28T23:08:54.107Z,21.95
2023-01-28T23:11:27.564Z,22.20
2023-01-28T23:14:18.716Z,22.05
2023-01-28T23:17:04.606Z,20.80
2023-01-28T23:19:50.464Z,21.30
2023-01-28T23:22:48.510Z,24.30
2023-01-28T23:25:15.691Z,21.35
2023-01-28T23:27:42.820Z,24.80
2023-01-28T23:30:11.103Z,20.60
2023-01-28T23:32:40.406Z,22.75
2023-01-28T23:35:11.162Z,22.30
2023-01-28T23:37:38.167Z,25.25
2023-01-28T23:40:06.654Z,26.75
2023-01-28T23:42:33.368Z,22.80
2023-01-28T23:45:00.162Z,22.27
2023-01-28T23:47:26.984Z,22.45
2023-01-28T23:49:53.749Z,21.17
2023-01-28T23:52:20.377Z,21.90
2023-01-28T23:54:47.058Z,21.05
2023-01-28T23:57:13.718Z,22.05
2023-01-28T23:59:40.384Z,19.00
